Time;durP1;ratioP1;P1;durP2;ratioP2;P2;SDS_P1;SDS_P2;PMS_P1;PMS_P2;Temp;Humidity;BMP_temperature;BMP_pressure;BME280_temperature;BME280_humidity;BME280_pressure;Samples;Min_cycle;Max_cycle;Signal;HPM_P1;HPM_P2
2022/12/27 00:00:23;;;;;;;18.25;1.80;;;;;;;6.29;100.00;101991.63;5030002;28;20038;-37
2022/12/27 00:02:49;;;;;;;18.33;2.10;;;;;;;6.33;100.00;101992.22;5028623;28;20465;-38
2022/12/27 00:05:14;;;;;;;13.93;1.60;;;;;;;6.38;100.00;101988.19;5029745;28;20026;-35
2022/12/27 00:07:43;;;;;;;23.58;2.08;;;;;;;6.42;100.00;101987.91;5028797;28;20032;-37
2022/12/27 00:10:08;;;;;;;14.93;2.05;;;;;;;6.42;100.00;101985.25;5030080;28;20067;-38
2022/12/27 00:12:34;;;;;;;19.02;1.65;;;;;;;6.47;100.00;101985.72;5030211;28;20134;-38
2022/12/27 00:14:59;;;;;;;22.45;2.05;;;;;;;6.48;100.00;101988.28;5028647;28;20043;-38
2022/12/27 00:17:25;;;;;;;17.00;2.13;;;;;;;6.50;100.00;102005.06;5030013;28;20104;-35
2022/12/27 00:19:50;;;;;;;16.50;1.67;;;;;;;6.49;100.00;101992.63;5029827;28;20033;-36
2022/12/27 00:22:16;;;;;;;15.85;1.45;;;;;;;6.50;100.00;101988.13;5029774;28;20037;-37
2022/12/27 00:24:41;;;;;;;14.13;2.20;;;;;;;6.48;100.00;101995.47;5029907;28;20028;-38
2022/12/27 00:27:06;;;;;;;12.60;1.48;;;;;;;6.49;100.00;101989.97;5029555;28;20033;-35
2022/12/27 00:29:32;;;;;;;17.50;1.70;;;;;;;6.53;100.00;101996.78;5029410;28;20042;-35
2022/12/27 00:31:57;;;;;;;24.08;2.53;;;;;;;6.55;100.00;101988.59;5029747;28;20030;-36
2022/12/27 00:34:23;;;;;;;19.73;2.10;;;;;;;6.58;100.00;101986.53;5029618;28;20021;-35
2022/12/27 00:36:48;;;;;;;16.88;2.03;;;;;;;6.59;100.00;101998.09;5030312;28;20036;-35
2022/12/27 00:39:13;;;;;;;13.50;1.77;;;;;;;6.60;100.00;101983.72;5033287;28;20029;-36
2022/12/27 00:41:39;;;;;;;8.75;1.13;;;;;;;6.63;100.00;101996.00;5033063;28;20470;-35
2022/12/27 00:44:04;;;;;;;15.05;1.75;;;;;;;6.63;100.00;102004.84;5033196;28;20025;-35
2022/12/27 00:46:29;;;;;;;19.98;2.78;;;;;;;6.59;100.00;102006.94;5032891;28;20413;-34
2022/12/27 00:48:56;;;;;;;15.50;1.70;;;;;;;6.59;100.00;102009.63;5033123;28;20034;-37
2022/12/27 00:51:23;;;;;;;18.90;2.08;;;;;;;6.56;100.00;102019.75;5032857;28;20546;-38
2022/12/27 00:53:49;;;;;;;10.45;2.00;;;;;;;6.35;100.00;102023.19;5031736;28;20532;-35
2022/12/27 00:56:17;;;;;;;14.15;2.13;;;;;;;6.33;100.00;102010.94;5031419;28;20029;-36
2022/12/27 00:58:43;;;;;;;;;;;;;;;6.31;100.00;102016.38;5032040;28;20475;-36
2022/12/27 01:01:12;;;;;;;16.40;1.95;;;;;;;6.27;100.00;102014.97;5032790;28;19948;-35
2022/12/27 01:03:37;;;;;;;16.77;1.80;;;;;;;6.25;100.00;102029.41;5032784;28;20052;-36
2022/12/27 01:06:08;;;;;;;10.27;1.77;;;;;;;6.22;100.00;102019.81;5032587;28;20041;-36
2022/12/27 01:08:34;;;;;;;18.95;2.17;;;;;;;6.21;100.00;102031.47;5032758;28;20061;-36
2022/12/27 01:11:00;;;;;;;16.70;2.00;;;;;;;6.23;100.00;102034.03;5032791;28;20053;-35
2022/12/27 01:13:25;;;;;;;19.50;1.90;;;;;;;6.21;100.00;102030.63;5033077;28;20032;-38
2022/12/27 01:15:51;;;;;;;25.70;2.85;;;;;;;6.23;100.00;102037.56;5032703;28;20037;-35
2022/12/27 01:18:16;;;;;;;18.73;2.00;;;;;;;6.23;100.00;102032.19;5032501;28;20132;-37
2022/12/27 01:20:41;;;;;;;21.17;2.03;;;;;;;6.22;100.00;102038.53;5032595;28;20025;-35
2022/12/27 01:23:07;;;;;;;16.70;1.88;;;;;;;6.22;100.00;102046.56;5032367;28;20459;-35
2022/12/27 01:25:32;;;;;;;24.45;2.35;;;;;;;6.20;100.00;102061.88;5032525;28;20030;-35
2022/12/27 01:27:57;;;;;;;12.70;1.95;;;;;;;6.18;100.00;102055.78;5032289;28;20075;-35
2022/12/27 01:30:23;;;;;;;15.25;1.95;;;;;;;6.16;100.00;102049.69;5032579;28;20373;-37
2022/12/27 01:32:48;;;;;;;21.35;2.70;;;;;;;6.14;100.00;102057.88;5031008;28;20060;-36
2022/12/27 01:35:13;;;;;;;18.00;2.22;;;;;;;6.13;100.00;102060.66;5033237;28;20111;-37
2022/12/27 01:37:39;;;;;;;17.67;2.60;;;;;;;6.17;100.00;102062.13;5032486;28;20445;-35
2022/12/27 01:40:05;;;;;;;11.05;2.10;;;;;;;6.17;100.00;102067.47;5032265;28;20032;-37
2022/12/27 01:45:16;;;;;;;15.20;1.60;;;;;;;6.18;100.00;102068.31;5033003;28;20588;-35
2022/12/27 01:47:47;;;;;;;14.30;2.00;;;;;;;6.24;100.00;102073.16;5032159;28;20036;-36
2022/12/27 01:50:26;;;;;;;20.35;2.67;;;;;;;6.28;100.00;102072.78;5032622;28;20107;-37
2022/12/27 01:52:58;;;;;;;13.43;1.88;;;;;;;6.32;100.00;102078.75;5032033;28;20025;-37
2022/12/27 01:55:49;;;;;;;14.02;2.25;;;;;;;6.36;100.00;102073.00;5031995;28;20104;-35
2022/12/27 01:58:17;;;;;;;26.80;2.75;;;;;;;6.31;100.00;102075.22;5031838;28;20297;-35
2022/12/27 02:00:44;;;;;;;18.00;2.00;;;;;;;6.26;100.00;102080.06;5031786;28;20222;-35
2022/12/27 02:03:10;;;;;;;24.05;2.25;;;;;;;6.20;100.00;102080.56;5030588;28;20330;-36
2022/12/27 02:05:40;;;;;;;23.10;2.30;;;;;;;6.17;100.00;102096.03;5030337;28;20021;-36
2022/12/27 02:08:19;;;;;;;16.23;1.90;;;;;;;6.17;100.00;102093.34;5030233;28;20029;-35
2022/12/27 02:10:45;;;;;;;12.82;2.35;;;;;;;6.13;100.00;102106.09;5031815;28;20035;-35
2022/12/27 02:13:11;;;;;;;15.65;2.05;;;;;;;6.08;100.00;102092.25;5031640;28;20100;-36
2022/12/27 02:15:36;;;;;;;12.35;2.00;;;;;;;6.06;100.00;102099.56;5030191;28;20025;-37
2022/12/27 02:18:02;;;;;;;13.43;1.85;;;;;;;6.05;100.00;102109.38;5031346;28;20036;-36
2022/12/27 02:20:32;;;;;;;20.80;2.28;;;;;;;6.04;100.00;102107.69;5031389;28;20104;-38
2022/12/27 02:26:15;;;;;;;16.05;1.73;;;;;;;6.07;100.00;102103.91;5031347;28;20451;-37
2022/12/27 02:29:01;;;;;;;13.35;2.70;;;;;;;6.09;100.00;102118.00;5031160;28;20057;-36
2022/12/27 02:31:34;;;;;;;16.83;2.28;;;;;;;6.10;100.00;102117.03;5031238;28;20139;-36
2022/12/27 02:34:04;;;;;;;11.63;1.50;;;;;;;6.10;100.00;102122.38;5030102;28;20434;-36
2022/12/27 02:36:30;;;;;;;15.15;1.70;;;;;;;6.10;100.00;102131.22;5029968;28;20025;-35
2022/12/27 02:38:58;;;;;;;20.58;2.13;;;;;;;6.13;100.00;102125.69;5013290;28;20483;-35
2022/12/27 02:55:34;;;;;;;14.32;1.90;;;;;;;5.99;100.00;102133.06;5030927;28;20064;-35
2022/12/27 02:58:13;;;;;;;11.00;1.58;;;;;;;5.92;100.00;102135.31;5030570;28;20034;-35
2022/12/27 03:03:41;;;;;;;9.73;1.35;;;;;;;5.91;100.00;102137.16;5029831;28;20091;-38
2022/12/27 03:06:40;;;;;;;10.65;1.58;;;;;;;5.90;100.00;102139.97;5029303;28;20030;-37
2022/12/27 03:18:12;;;;;;;14.93;2.03;;;;;;;5.72;100.00;102145.75;5030947;28;20539;-38
2022/12/27 03:26:08;;;;;;;17.35;1.80;;;;;;;5.73;100.00;102143.91;5029653;28;20448;-35
2022/12/27 03:34:31;;;;;;;19.58;2.90;;;;;;;5.73;100.00;102151.94;5029355;28;20496;-37
2022/12/27 03:39:59;;;;;;;6.95;1.50;;;;;;;5.69;100.00;102158.50;5030585;28;20105;-35
2022/12/27 03:45:10;;;;;;;13.75;2.30;;;;;;;5.67;100.00;102152.41;5029267;28;20045;-35
2022/12/27 03:47:47;;;;;;;11.38;1.38;;;;;;;5.64;100.00;102150.84;5030222;28;20026;-35
2022/12/27 03:50:22;;;;;;;14.95;1.60;;;;;;;5.64;100.00;102153.50;5028666;28;20025;-38
2022/12/27 03:52:57;;;;;;;9.90;1.77;;;;;;;5.65;100.00;102157.88;5028738;28;20030;-35
2022/12/27 03:55:23;;;;;;;14.25;1.30;;;;;;;5.64;100.00;102155.31;5029418;28;20079;-36
2022/12/27 03:57:49;;;;;;;11.73;1.80;;;;;;;5.63;100.00;102164.28;5028453;28;20033;-37
2022/12/27 04:00:14;;;;;;;17.35;2.10;;;;;;;5.62;100.00;102160.78;5027811;28;20033;-35
2022/12/27 04:02:40;;;;;;;23.35;1.85;;;;;;;5.65;100.00;102162.34;5030072;28;20048;-36
2022/12/27 04:05:05;;;;;;;15.40;1.75;;;;;;;5.69;100.00;102163.84;5029837;28;20448;-36
2022/12/27 04:07:31;;;;;;;40.53;4.50;;;;;;;5.73;100.00;102167.97;5030056;28;20032;-36
2022/12/27 04:34:44;;;;;;;10.52;1.58;;;;;;;5.67;100.00;102171.13;5032233;28;20136;-36
2022/12/27 04:37:15;;;;;;;11.82;1.98;;;;;;;5.63;100.00;102170.47;5033473;28;20030;-35
2022/12/27 04:54:55;;;;;;;21.95;3.30;;;;;;;5.61;100.00;102184.91;5033267;28;20488;-37
2022/12/27 04:56:07;;;;;;;14.73;1.70;;;;;;;5.57;100.00;102195.00;5033213;28;20496;-37
2022/12/27 04:58:32;;;;;;;13.65;1.85;;;;;;;5.62;100.00;102186.63;5032893;28;20116;-35
2022/12/27 05:03:45;;;;;;;10.68;1.70;;;;;;;5.65;100.00;102189.06;5031782;28;20523;-35
2022/12/27 05:06:11;;;;;;;8.18;1.60;;;;;;;5.62;100.00;102190.16;5031460;28;20112;-35
2022/12/27 05:14:09;;;;;;;19.38;1.75;;;;;;;5.58;100.00;102193.16;5034618;28;20083;-37
2022/12/27 05:16:36;;;;;;;14.40;1.73;;;;;;;5.54;100.00;102195.22;5032504;28;20029;-35
2022/12/27 05:19:03;;;;;;;16.88;1.85;;;;;;;5.53;100.00;102201.53;5031349;28;20052;-37
2022/12/27 05:21:28;;;;;;;12.57;2.72;;;;;;;5.56;100.00;102206.66;5031987;28;20030;-36
2022/12/27 05:26:38;;;;;;;17.02;1.58;;;;;;;5.59;100.00;102205.56;5032285;28;20048;-35
2022/12/27 05:29:05;;;;;;;13.48;1.73;;;;;;;5.58;100.00;102204.72;5032194;28;20041;-34
2022/12/27 05:31:31;;;;;;;18.97;1.73;;;;;;;5.58;100.00;102206.53;5032350;28;20029;-35
2022/12/27 05:33:57;;;;;;;14.27;1.92;;;;;;;5.58;100.00;102206.53;5032255;28;20283;-35
2022/12/27 05:36:22;;;;;;;10.43;1.63;;;;;;;5.55;100.00;102204.09;5030673;28;20461;-37
2022/12/27 05:38:48;;;;;;;15.75;1.95;;;;;;;5.55;100.00;102204.94;5031012;28;20148;-34
2022/12/27 05:41:14;;;;;;;12.63;1.70;;;;;;;5.56;100.00;102200.47;5030690;28;20110;-35
2022/12/27 05:43:39;;;;;;;11.57;1.30;;;;;;;5.58;100.00;102211.84;5030867;28;20033;-36
2022/12/27 05:46:08;;;;;;;8.63;1.38;;;;;;;5.60;100.00;102215.28;5031943;28;20025;-35
2022/12/27 05:48:34;;;;;;;9.02;1.20;;;;;;;5.61;100.00;102224.97;5031946;28;20025;-34
2022/12/27 05:51:17;;;;;;;12.18;1.40;;;;;;;5.59;100.00;102224.25;5031901;28;20095;-37
2022/12/27 05:53:42;;;;;;;15.80;2.80;;;;;;;5.55;100.00;102230.78;5031867;28;20033;-36
2022/12/27 05:56:10;;;;;;;12.02;1.50;;;;;;;5.53;100.00;102222.91;5031914;28;20026;-36
2022/12/27 05:58:36;;;;;;;17.80;1.63;;;;;;;5.48;100.00;102217.06;5030425;28;20111;-35
2022/12/27 06:01:07;;;;;;;12.55;1.60;;;;;;;5.45;100.00;102218.13;5031640;28;20469;-35
2022/12/27 06:03:32;;;;;;;13.77;1.42;;;;;;;5.39;100.00;102215.91;5031709;28;20460;-35
2022/12/27 06:06:02;;;;;;;11.50;1.85;;;;;;;5.40;100.00;102225.63;5032061;28;20029;-36
2022/12/27 06:08:28;;;;;;;13.05;2.10;;;;;;;5.39;100.00;102218.56;5030441;28;20368;-35
2022/12/27 06:11:10;;;;;;;15.55;1.67;;;;;;;5.39;100.00;102217.72;5031569;28;20037;-35
2022/12/27 06:13:36;;;;;;;18.08;2.38;;;;;;;5.36;100.00;102225.97;5031600;28;20396;-36
2022/12/27 06:16:04;;;;;;;15.88;1.73;;;;;;;5.37;100.00;102230.34;5031474;28;20025;-35
2022/12/27 06:18:31;;;;;;;16.67;1.97;;;;;;;5.37;100.00;102233.88;5031152;28;20041;-35
2022/12/27 06:21:01;;;;;;;15.88;1.60;;;;;;;5.34;100.00;102243.91;5031626;28;20051;-36
2022/12/27 06:23:27;;;;;;;10.60;2.03;;;;;;;5.33;100.00;102253.75;5031120;28;20480;-35
2022/12/27 06:25:52;;;;;;;24.50;2.70;;;;;;;5.32;100.00;102246.72;5031572;28;20109;-36
2022/12/27 06:28:17;;;;;;;12.82;2.20;;;;;;;5.33;100.00;102248.41;5030970;28;20362;-35
2022/12/27 06:30:43;;;;;;;14.23;1.77;;;;;;;5.34;100.00;102243.91;5013339;28;20052;-36
2022/12/27 06:33:08;;;;;;;10.77;1.42;;;;;;;5.31;100.00;102247.66;5029518;28;20032;-35
2022/12/27 06:35:33;;;;;;;11.70;2.05;;;;;;;5.28;100.00;102250.56;5030980;28;20025;-35
2022/12/27 06:37:59;;;;;;;14.98;1.85;;;;;;;5.26;100.00;102252.50;5033644;28;20053;-34
2022/12/27 06:40:24;;;;;;;13.10;1.98;;;;;;;5.25;100.00;102265.00;5029548;28;20025;-37
2022/12/27 06:42:49;;;;;;;15.27;1.83;;;;;;;5.26;100.00;102268.50;5031126;28;20029;-34
2022/12/27 06:45:15;;;;;;;11.52;2.40;;;;;;;5.27;100.00;102264.88;5028742;28;20060;-34
2022/12/27 06:47:40;;;;;;;13.23;1.80;;;;;;;5.27;100.00;102270.22;5030890;28;20094;-35
2022/12/27 06:50:06;;;;;;;13.55;2.13;;;;;;;5.28;100.00;102272.75;5030723;28;20480;-34
2022/12/27 06:52:31;;;;;;;12.00;1.65;;;;;;;5.26;100.00;102273.84;5030689;28;20460;-35
2022/12/27 06:54:56;;;;;;;15.80;1.92;;;;;;;5.24;100.00;102267.78;5030983;28;20091;-35
2022/12/27 06:57:22;;;;;;;11.20;2.28;;;;;;;5.23;100.00;102263.41;5030744;28;20095;-35
2022/12/27 06:59:47;;;;;;;13.95;2.25;;;;;;;5.21;100.00;102265.31;5030599;28;20033;-38
2022/12/27 07:02:12;;;;;;;14.65;1.50;;;;;;;5.19;100.00;102265.44;5030575;28;20014;-38
2022/12/27 07:04:38;;;;;;;11.93;2.55;;;;;;;5.19;100.00;102272.59;5030835;28;20453;-37
2022/12/27 07:07:03;;;;;;;13.98;1.60;;;;;;;5.15;100.00;102271.09;5030766;28;20465;-37
2022/12/27 07:09:28;;;;;;;14.75;1.95;;;;;;;5.14;100.00;102272.09;5030573;28;20551;-34
2022/12/27 07:11:54;;;;;;;10.18;1.30;;;;;;;5.13;100.00;102268.53;5030920;28;20542;-36
2022/12/27 07:14:19;;;;;;;12.60;1.60;;;;;;;5.11;100.00;102265.16;5030399;28;20473;-35
2022/12/27 07:16:44;;;;;;;20.35;2.00;;;;;;;5.12;100.00;102258.84;5030483;28;20022;-36
2022/12/27 07:19:10;;;;;;;14.55;1.48;;;;;;;5.15;100.00;102271.97;5030265;28;20477;-37
2022/12/27 07:21:36;;;;;;;13.38;1.40;;;;;;;5.17;100.00;102272.72;5030488;28;20456;-36
2022/12/27 07:24:01;;;;;;;14.50;1.90;;;;;;;5.23;100.00;102276.75;5030232;28;20025;-36
2022/12/27 07:26:28;;;;;;;15.00;1.63;;;;;;;5.29;100.00;102286.97;5028975;28;20079;-36
2022/12/27 07:28:55;;;;;;;14.25;1.65;;;;;;;5.32;100.00;102283.22;5030186;28;20041;-35
2022/12/27 07:31:23;;;;;;;9.55;1.63;;;;;;;5.30;100.00;102290.50;5028962;28;20037;-36
2022/12/27 07:33:49;;;;;;;22.58;1.75;;;;;;;5.28;100.00;102288.78;5029957;28;20558;-35
2022/12/27 07:36:16;;;;;;;19.25;2.05;;;;;;;5.26;100.00;102296.03;5030232;28;20112;-35
2022/12/27 07:38:42;;;;;;;12.07;1.40;;;;;;;5.26;100.00;102295.19;5030174;28;20030;-36
2022/12/27 07:41:09;;;;;;;11.55;1.52;;;;;;;5.22;100.00;102293.72;5028768;28;20025;-35
2022/12/27 07:43:35;;;;;;;11.33;1.80;;;;;;;5.19;100.00;102296.63;5028599;28;20092;-37
2022/12/27 07:46:12;;;;;;;17.10;1.90;;;;;;;5.17;100.00;102295.88;5032910;28;20096;-37
2022/12/27 07:48:37;;;;;;;16.40;1.80;;;;;;;5.16;100.00;102299.50;5034176;28;20063;-37
2022/12/27 07:51:03;;;;;;;21.23;2.60;;;;;;;5.18;100.00;102297.56;5034011;28;20033;-35
2022/12/27 07:53:29;;;;;;;12.60;1.95;;;;;;;5.17;100.00;102295.88;5033911;28;20025;-37
2022/12/27 07:55:55;;;;;;;17.27;1.65;;;;;;;5.18;100.00;102297.56;5034148;28;20497;-35
2022/12/27 07:58:20;;;;;;;11.52;1.88;;;;;;;5.17;100.00;102285.19;5032572;28;20093;-35
2022/12/27 08:00:49;;;;;;;15.13;2.47;;;;;;;5.17;100.00;102290.53;5033931;28;20388;-37
2022/12/27 08:03:14;;;;;;;19.73;1.88;;;;;;;5.17;100.00;102294.06;5033987;28;20451;-35
2022/12/27 08:05:51;;;;;;;8.70;1.90;;;;;;;5.18;100.00;102295.75;5033969;28;20037;-35
2022/12/27 08:08:19;;;;;;;17.57;2.23;;;;;;;5.23;100.00;102300.75;5034216;28;20040;-37
2022/12/27 08:10:44;;;;;;;14.27;2.20;;;;;;;5.16;100.00;102299.50;5032299;28;20144;-37
2022/12/27 08:13:09;;;;;;;10.65;2.00;;;;;;;5.01;100.00;102296.13;5033816;28;20485;-35
2022/12/27 08:15:36;;;;;;;14.02;2.70;;;;;;;4.94;100.00;102305.53;5033736;28;20029;-36
2022/12/27 08:18:01;;;;;;;17.35;3.03;;;;;;;4.90;100.00;102312.03;5033713;28;20473;-38
2022/12/27 08:20:27;;;;;;;18.30;2.80;;;;;;;4.77;100.00;102312.06;5033592;28;20087;-36
2022/12/27 08:22:53;;;;;;;29.98;3.10;;;;;;;4.71;100.00;102309.81;5033721;28;20022;-35
2022/12/27 08:25:18;;;;;;;18.27;2.75;;;;;;;4.74;100.00;102312.25;5033434;28;20060;-36
2022/12/27 08:27:43;;;;;;;15.52;2.85;;;;;;;4.84;100.00;102307.97;5016361;28;20160;-35
2022/12/27 08:30:09;;;;;;;19.08;2.90;;;;;;;4.97;100.00;102307.97;5033110;28;20033;-35
2022/12/27 08:32:34;;;;;;;18.42;2.17;;;;;;;5.17;100.00;102312.75;5033663;28;20100;-36
2022/12/27 08:35:00;;;;;;;17.10;2.65;;;;;;;5.01;100.00;102312.13;5033822;28;20433;-34
2022/12/27 08:37:25;;;;;;;25.23;3.20;;;;;;;5.05;100.00;102314.50;5034059;28;20033;-34
2022/12/27 08:39:50;;;;;;;21.50;2.38;;;;;;;5.28;100.00;102317.28;5033804;28;20036;-35
2022/12/27 08:42:16;;;;;;;19.63;2.80;;;;;;;5.35;100.00;102320.38;5033512;28;20030;-38
2022/12/27 08:44:41;;;;;;;14.52;2.35;;;;;;;5.73;100.00;102318.41;5033153;28;20489;-36
2022/12/27 08:47:06;;;;;;;22.83;2.15;;;;;;;5.86;100.00;102314.81;5031962;28;20028;-35
2022/12/27 08:49:32;;;;;;;12.50;2.22;;;;;;;5.94;100.00;102317.81;5032923;28;20021;-36
2022/12/27 08:51:57;;;;;;;14.45;2.35;;;;;;;6.05;100.00;102315.16;5032933;28;20029;-35
2022/12/27 08:54:23;;;;;;;20.30;2.78;;;;;;;6.11;100.00;102319.22;5032726;28;20399;-35
2022/12/27 08:56:48;;;;;;;17.30;2.65;;;;;;;6.20;100.00;102313.16;5032632;28;20025;-37
2022/12/27 08:59:13;;;;;;;11.65;2.53;;;;;;;6.26;100.00;102311.81;5031374;28;20036;-36
2022/12/27 09:01:39;;;;;;;15.98;2.38;;;;;;;6.14;100.00;102321.66;5033035;28;20465;-36
2022/12/27 09:04:04;;;;;;;13.38;3.22;;;;;;;6.08;100.00;102308.72;5032815;28;20073;-37
2022/12/27 09:06:29;;;;;;;16.08;2.70;;;;;;;6.25;100.00;102321.69;5032850;28;20021;-36
2022/12/27 09:08:55;;;;;;;20.90;2.42;;;;;;;6.42;100.00;102324.88;5032754;28;20026;-35
2022/12/27 09:11:29;;;;;;;19.63;3.28;;;;;;;6.38;100.00;102322.44;5031020;28;20523;-36
2022/12/27 09:13:56;;;;;;;14.68;2.50;;;;;;;6.45;100.00;102324.63;5032603;28;20026;-35
2022/12/27 09:16:23;;;;;;;29.08;4.53;;;;;;;6.42;100.00;102332.88;5030990;28;20500;-38
2022/12/27 09:18:51;;;;;;;10.30;2.00;;;;;;;6.35;100.00;102329.84;5014436;28;20038;-35
2022/12/27 09:21:17;;;;;;;16.33;2.28;;;;;;;6.49;100.00;102326.94;5032276;28;20045;-36
2022/12/27 09:23:43;;;;;;;19.05;2.65;;;;;;;6.53;100.00;102330.22;5032085;28;20040;-35
2022/12/27 09:26:10;;;;;;;17.35;3.38;;;;;;;6.66;100.00;102322.97;5032264;28;20420;-35
2022/12/27 09:28:35;;;;;;;10.00;2.72;;;;;;;6.64;100.00;102327.59;5032246;28;20049;-37
2022/12/27 09:31:01;;;;;;;12.20;2.47;;;;;;;6.40;100.00;102326.81;5032367;28;20036;-34
2022/12/27 09:33:27;;;;;;;15.68;2.55;;;;;;;6.17;100.00;102328.59;5032518;28;20139;-34
2022/12/27 09:35:53;;;;;;;28.48;3.95;;;;;;;6.26;100.00;102323.38;5032092;28;20022;-34
2022/12/27 09:38:18;;;;;;;17.65;2.80;;;;;;;6.40;100.00;102335.69;5033854;28;20116;-34
2022/12/27 09:40:54;;;;;;;14.85;2.63;;;;;;;6.63;100.00;102325.03;5035284;28;20029;-34
2022/12/27 09:43:23;;;;;;;13.90;2.35;;;;;;;6.91;100.00;102327.25;5034328;28;20029;-34
2022/12/27 09:45:50;;;;;;;8.13;1.98;;;;;;;7.12;100.00;102321.16;5033438;28;20039;-34
2022/12/27 09:48:31;;;;;;;16.25;2.85;;;;;;;7.44;100.00;102327.41;5031054;28;20026;-37
2022/12/27 09:51:10;;;;;;;16.95;2.90;;;;;;;7.44;100.00;102316.72;5032099;28;20071;-35
2022/12/27 09:53:38;;;;;;;18.42;2.42;;;;;;;7.34;100.00;102328.28;5032475;28;20025;-38
2022/12/27 09:56:05;;;;;;;14.13;3.00;;;;;;;7.29;100.00;102328.66;5031880;28;20025;-35
2022/12/27 09:58:54;;;;;;;18.92;2.85;;;;;;;7.34;100.00;102337.19;5030534;28;20473;-36
2022/12/27 10:01:23;;;;;;;12.00;3.20;;;;;;;7.68;100.00;102351.34;5030272;28;20030;-36
2022/12/27 10:03:48;;;;;;;9.73;2.42;;;;;;;7.76;100.00;102341.84;5030592;28;20382;-37
2022/12/27 10:06:26;;;;;;;12.68;2.38;;;;;;;8.28;100.00;102341.00;5031668;28;20029;-39
2022/12/27 10:09:17;;;;;;;12.02;2.45;;;;;;;8.06;100.00;102333.94;5030530;28;20021;-37
2022/12/27 10:11:51;;;;;;;15.68;2.55;;;;;;;7.91;100.00;102330.69;5026812;28;20041;-38
2022/12/27 10:14:20;;;;;;;12.73;2.80;;;;;;;7.75;100.00;102329.44;5031798;28;20040;-38
2022/12/27 10:17:06;;;;;;;18.92;3.28;;;;;;;7.53;100.00;102328.53;5031597;28;20112;-36
2022/12/27 10:19:47;;;;;;;23.00;2.78;;;;;;;7.62;100.00;102329.59;5031618;28;20030;-37
2022/12/27 10:22:12;;;;;;;17.08;3.10;;;;;;;8.13;100.00;102324.38;5029927;28;20487;-36
2022/12/27 10:24:46;;;;;;;14.77;3.10;;;;;;;7.94;100.00;102329.59;5031995;28;20101;-38
2022/12/27 10:27:20;;;;;;;19.58;3.50;;;;;;;7.74;100.00;102327.72;5030121;28;20107;-36
2022/12/27 10:29:47;;;;;;;12.93;2.22;;;;;;;7.72;100.00;102330.53;5031261;28;20068;-35
2022/12/27 10:32:14;;;;;;;14.00;3.05;;;;;;;7.60;100.00;102331.53;5030159;28;20022;-36
2022/12/27 10:34:40;;;;;;;13.75;2.75;;;;;;;7.86;100.00;102318.66;5031278;28;20721;-37
2022/12/27 10:37:05;;;;;;;13.65;2.45;;;;;;;7.84;100.00;102320.59;5030024;28;20502;-36
2022/12/27 10:39:34;;;;;;;12.68;2.65;;;;;;;7.88;100.00;102328.28;5031136;28;20112;-35
2022/12/27 10:42:06;;;;;;;15.48;2.78;;;;;;;7.82;100.00;102331.47;5029680;28;20547;-37
2022/12/27 10:44:32;;;;;;;13.77;2.45;;;;;;;7.91;100.00;102316.44;5031332;28;20037;-37
2022/12/27 10:46:58;;;;;;;14.40;2.50;;;;;;;7.81;100.00;102328.91;5030855;28;20052;-37
2022/12/27 10:49:27;;;;;;;18.67;2.97;;;;;;;7.59;100.00;102319.97;5029634;28;20477;-35
2022/12/27 10:51:55;;;;;;;14.23;2.72;;;;;;;7.61;100.00;102315.34;5030942;28;20025;-37
2022/12/27 10:54:28;;;;;;;20.17;3.10;;;;;;;7.56;100.00;102314.88;5029753;28;20033;-36
2022/12/27 10:56:54;;;;;;;19.67;3.80;;;;;;;7.59;100.00;102328.00;5030763;28;20029;-35
2022/12/27 10:59:25;;;;;;;17.40;3.28;;;;;;;7.78;100.00;102326.50;5030770;28;20028;-35
2022/12/27 11:02:17;;;;;;;14.85;3.10;;;;;;;7.64;100.00;102327.63;5030876;28;20030;-36
2022/12/27 11:05:11;;;;;;;14.15;2.80;;;;;;;7.88;100.00;102330.09;5031051;28;20136;-37
2022/12/27 11:07:37;;;;;;;14.27;3.28;;;;;;;7.69;100.00;102325.44;5016131;28;20499;-35
2022/12/27 11:10:15;;;;;;;13.75;3.10;;;;;;;8.09;100.00;102328.31;5030444;28;20025;-35
2022/12/27 11:12:53;;;;;;;;;;;;;;;7.87;100.00;102323.91;5031273;28;20032;-37
2022/12/27 11:15:19;;;;;;;15.05;3.33;;;;;;;8.04;100.00;102321.63;5030651;28;19908;-36
2022/12/27 11:17:45;;;;;;;17.67;3.42;;;;;;;8.19;100.00;102324.81;5030444;28;20067;-35
2022/12/27 11:20:11;;;;;;;15.40;3.08;;;;;;;8.16;100.00;102327.78;5029044;28;20055;-37
2022/12/27 11:22:54;;;;;;;19.25;3.50;;;;;;;7.83;100.00;102330.47;5028758;28;20477;-35
2022/12/27 11:25:19;;;;;;;16.10;3.60;;;;;;;7.44;100.00;102321.22;5030604;28;20512;-34
2022/12/27 11:27:48;;;;;;;21.17;3.60;;;;;;;7.26;100.00;102331.59;5028846;28;20141;-35
2022/12/27 11:30:24;;;;;;;14.93;3.65;;;;;;;7.00;100.00;102331.00;5028855;28;20582;-35
2022/12/27 11:32:49;;;;;;;16.15;3.75;;;;;;;7.08;100.00;102330.38;5030409;28;20128;-35
2022/12/27 11:35:17;;;;;;;16.15;4.07;;;;;;;7.11;100.00;102333.69;5030366;28;20120;-35
2022/12/27 11:37:42;;;;;;;14.67;3.73;;;;;;;6.99;100.00;102326.63;5030186;28;20163;-36
2022/12/27 11:40:13;;;;;;;14.98;3.40;;;;;;;6.98;100.00;102314.22;5030226;28;20516;-34
2022/12/27 11:42:44;;;;;;;18.45;4.05;;;;;;;7.29;100.00;102325.97;5030261;28;20377;-35
2022/12/27 11:45:22;;;;;;;14.10;3.92;;;;;;;7.33;100.00;102324.78;5030303;28;20030;-35
2022/12/27 11:48:05;;;;;;;11.88;3.70;;;;;;;7.20;100.00;102319.56;5030002;28;20484;-36
2022/12/27 11:50:45;;;;;;;12.13;4.05;;;;;;;7.10;100.00;102328.44;5029037;28;20523;-38
2022/12/27 11:53:48;;;;;;;14.00;3.90;;;;;;;7.02;100.00;102323.69;5028921;28;20163;-36
2022/12/27 11:56:25;;;;;;;15.02;4.22;;;;;;;6.97;100.00;102318.72;5030155;28;20473;-35
2022/12/27 11:59:15;;;;;;;11.60;4.47;;;;;;;7.16;100.00;102323.47;5028672;28;20277;-35
2022/12/27 12:02:08;;;;;;;22.33;5.10;;;;;;;7.26;100.00;102312.84;5030120;28;20017;-38
2022/12/27 12:05:11;;;;;;;14.35;3.92;;;;;;;7.52;100.00;102305.38;5030229;28;20028;-35
2022/12/27 12:07:55;;;;;;;14.30;4.03;;;;;;;7.70;100.00;102297.63;5029250;28;20078;-35
2022/12/27 12:10:30;;;;;;;15.30;3.75;;;;;;;7.81;100.00;102294.06;5028265;28;20101;-36
2022/12/27 12:13:17;;;;;;;17.55;4.25;;;;;;;8.07;100.00;102287.34;5028887;28;20033;-36
2022/12/27 12:16:04;;;;;;;13.63;3.80;;;;;;;7.82;100.00;102287.72;5029665;28;20021;-36
2022/12/27 12:18:33;;;;;;;13.70;4.07;;;;;;;7.70;100.00;102274.38;5029888;28;20272;-36
2022/12/27 12:21:26;;;;;;;13.60;3.90;;;;;;;7.70;100.00;102263.66;5028542;28;20453;-37
2022/12/27 12:24:13;;;;;;;9.32;3.38;;;;;;;7.53;100.00;102250.81;5028626;28;20025;-36
2022/12/27 12:26:50;;;;;;;14.73;3.63;;;;;;;7.37;100.00;102253.94;5029794;28;20041;-38
2022/12/27 12:29:21;;;;;;;18.40;4.43;;;;;;;7.44;100.00;102256.94;5029605;28;20049;-36
2022/12/27 12:32:09;;;;;;;13.65;3.67;;;;;;;7.51;100.00;102246.56;5030479;28;20046;-35
2022/12/27 12:34:56;;;;;;;18.75;3.83;;;;;;;7.44;100.00;102235.50;5033094;28;20423;-35
2022/12/27 12:37:37;;;;;;;11.30;3.60;;;;;;;7.40;100.00;102240.28;5032041;28;20041;-37
2022/12/27 12:40:36;;;;;;;20.38;3.72;;;;;;;7.23;100.00;102230.09;5033252;28;20307;-38
2022/12/27 12:43:36;;;;;;;13.32;3.97;;;;;;;7.09;100.00;102223.19;5033127;28;20053;-37
2022/12/27 12:46:44;;;;;;;14.20;3.55;;;;;;;7.15;100.00;102216.47;5033255;28;20029;-36
2022/12/27 12:49:09;;;;;;;;;;;;;;;7.12;100.00;102206.03;5027324;28;20061;-37
2022/12/27 12:52:11;;;;;;;20.77;4.37;;;;;;;7.19;100.00;102216.13;5033176;28;19925;-36
2022/12/27 12:55:02;;;;;;;20.40;4.72;;;;;;;7.15;100.00;102200.41;5031482;28;20288;-37
2022/12/27 12:57:55;;;;;;;15.20;3.50;;;;;;;7.10;100.00;102203.47;5033316;28;20091;-35
2022/12/27 13:00:35;;;;;;;12.48;3.65;;;;;;;7.14;100.00;102202.25;5032674;28;20184;-35
2022/12/27 13:03:25;;;;;;;9.00;3.15;;;;;;;7.08;100.00;102193.84;5031728;28;20021;-38
2022/12/27 13:06:03;;;;;;;13.43;3.33;;;;;;;7.09;100.00;102199.09;5032678;28;20469;-38
2022/12/27 13:09:13;;;;;;;20.33;3.80;;;;;;;7.08;100.00;102191.19;5032486;28;20025;-35
2022/12/27 13:12:09;;;;;;;14.27;3.60;;;;;;;7.12;100.00;102185.47;4993657;28;20030;-38